sensor_id;sensor_type;location;lat;lon;timestamp;P1;durP1;ratioP1;P2;durP2;ratioP2
22955;SDS011;40888;48.148;11.526;2023-04-29T00:01:41;2.87;;;1.07;;
22955;SDS011;40888;48.148;11.526;2023-04-29T00:04:07;3.23;;;1.40;;
22955;SDS011;40888;48.148;11.526;2023-04-29T00:06:33;1.60;;;1.20;;
22955;SDS011;40888;48.148;11.526;2023-04-29T00:08:59;2.33;;;1.27;;
22955;SDS011;40888;48.148;11.526;2023-04-29T00:11:24;4.63;;;1.90;;
22955;SDS011;40888;48.148;11.526;2023-04-29T00:13:50;3.20;;;1.33;;
22955;SDS011;40888;48.148;11.526;2023-04-29T00:16:16;4.10;;;1.77;;
22955;SDS011;40888;48.148;11.526;2023-04-29T00:18:41;4.57;;;1.80;;
22955;SDS011;40888;48.148;11.526;2023-04-29T00:21:07;2.37;;;1.60;;
22955;SDS011;40888;48.148;11.526;2023-04-29T00:23:33;4.63;;;1.90;;
22955;SDS011;40888;48.148;11.526;2023-04-29T00:25:59;3.93;;;1.63;;
22955;SDS011;40888;48.148;11.526;2023-04-29T00:28:25;2.73;;;1.47;;
22955;SDS011;40888;48.148;11.526;2023-04-29T00:30:50;2.23;;;1.67;;
22955;SDS011;40888;48.148;11.526;2023-04-29T00:33:17;2.27;;;1.40;;
22955;SDS011;40888;48.148;11.526;2023-04-29T00:35:43;2.13;;;1.23;;
22955;SDS011;40888;48.148;11.526;2023-04-29T00:38:09;3.73;;;1.60;;
22955;SDS011;40888;48.148;11.526;2023-04-29T00:40:34;4.90;;;1.90;;
22955;SDS011;40888;48.148;11.526;2023-04-29T00:43:00;2.53;;;1.60;;
22955;SDS011;40888;48.148;11.526;2023-04-29T00:45:26;2.90;;;1.40;;
22955;SDS011;40888;48.148;11.526;2023-04-29T00:47:52;1.93;;;1.03;;
22955;SDS011;40888;48.148;11.526;2023-04-29T00:50:17;4.00;;;1.60;;
22955;SDS011;40888;48.148;11.526;2023-04-29T00:52:43;4.93;;;1.73;;
22955;SDS011;40888;48.148;11.526;2023-04-29T00:55:10;3.80;;;1.60;;
22955;SDS011;40888;48.148;11.526;2023-04-29T00:57:39;2.63;;;1.10;;
22955;SDS011;40888;48.148;11.526;2023-04-29T01:00:05;1.10;;;1.00;;
22955;SDS011;40888;48.148;11.526;2023-04-29T01:02:34;0.93;;;0.80;;
22955;SDS011;40888;48.148;11.526;2023-04-29T01:04:59;0.80;;;0.80;;
22955;SDS011;40888;48.148;11.526;2023-04-29T01:07:29;2.00;;;1.10;;
22955;SDS011;40888;48.148;11.526;2023-04-29T01:10:14;0.90;;;0.90;;
22955;SDS011;40888;48.148;11.526;2023-04-29T01:15:55;1.77;;;1.10;;
22955;SDS011;40888;48.148;11.526;2023-04-29T01:18:48;1.63;;;1.20;;
22955;SDS011;40888;48.148;11.526;2023-04-29T01:21:19;1.10;;;0.80;;
22955;SDS011;40888;48.148;11.526;2023-04-29T01:23:45;1.60;;;1.40;;
22955;SDS011;40888;48.148;11.526;2023-04-29T01:26:11;1.60;;;1.40;;
22955;SDS011;40888;48.148;11.526;2023-04-29T01:31:11;1.90;;;1.23;;
22955;SDS011;40888;48.148;11.526;2023-04-29T01:33:58;2.50;;;1.30;;
22955;SDS011;40888;48.148;11.526;2023-04-29T01:39:26;1.40;;;1.30;;
22955;SDS011;40888;48.148;11.526;2023-04-29T01:42:04;1.83;;;1.53;;
22955;SDS011;40888;48.148;11.526;2023-04-29T01:44:39;3.27;;;2.10;;
22955;SDS011;40888;48.148;11.526;2023-04-29T01:47:06;3.53;;;1.80;;
22955;SDS011;40888;48.148;11.526;2023-04-29T01:49:37;4.23;;;1.90;;
22955;SDS011;40888;48.148;11.526;2023-04-29T01:52:04;3.43;;;1.90;;
22955;SDS011;40888;48.148;11.526;2023-04-29T01:54:31;3.87;;;2.20;;
22955;SDS011;40888;48.148;11.526;2023-04-29T01:57:00;5.47;;;2.30;;
22955;SDS011;40888;48.148;11.526;2023-04-29T01:59:27;7.67;;;2.70;;
22955;SDS011;40888;48.148;11.526;2023-04-29T02:01:56;6.53;;;3.10;;
22955;SDS011;40888;48.148;11.526;2023-04-29T02:04:23;7.53;;;3.30;;
22955;SDS011;40888;48.148;11.526;2023-04-29T02:06:49;6.87;;;2.73;;
22955;SDS011;40888;48.148;11.526;2023-04-29T02:09:18;7.03;;;3.37;;
22955;SDS011;40888;48.148;11.526;2023-04-29T02:11:44;3.03;;;2.43;;
22955;SDS011;40888;48.148;11.526;2023-04-29T02:14:10;2.60;;;2.40;;
22955;SDS011;40888;48.148;11.526;2023-04-29T02:16:36;2.00;;;1.90;;
22955;SDS011;40888;48.148;11.526;2023-04-29T02:19:02;3.40;;;2.30;;
22955;SDS011;40888;48.148;11.526;2023-04-29T02:21:28;2.57;;;2.37;;
22955;SDS011;40888;48.148;11.526;2023-04-29T02:23:54;2.83;;;2.43;;
22955;SDS011;40888;48.148;11.526;2023-04-29T02:26:19;4.27;;;2.40;;
22955;SDS011;40888;48.148;11.526;2023-04-29T02:28:45;2.87;;;2.23;;
22955;SDS011;40888;48.148;11.526;2023-04-29T02:31:11;3.00;;;2.17;;
22955;SDS011;40888;48.148;11.526;2023-04-29T02:33:37;2.20;;;2.00;;
22955;SDS011;40888;48.148;11.526;2023-04-29T02:36:03;2.23;;;2.03;;
22955;SDS011;40888;48.148;11.526;2023-04-29T02:38:29;3.00;;;2.20;;
22955;SDS011;40888;48.148;11.526;2023-04-29T02:40:55;2.00;;;1.90;;
22955;SDS011;40888;48.148;11.526;2023-04-29T02:43:21;2.50;;;2.30;;
22955;SDS011;40888;48.148;11.526;2023-04-29T02:45:47;2.50;;;2.30;;
22955;SDS011;40888;48.148;11.526;2023-04-29T02:48:12;4.90;;;2.60;;
22955;SDS011;40888;48.148;11.526;2023-04-29T02:50:38;3.40;;;2.37;;
22955;SDS011;40888;48.148;11.526;2023-04-29T02:53:04;2.90;;;2.50;;
22955;SDS011;40888;48.148;11.526;2023-04-29T02:55:30;2.57;;;2.37;;
22955;SDS011;40888;48.148;11.526;2023-04-29T02:57:56;2.60;;;2.40;;
22955;SDS011;40888;48.148;11.526;2023-04-29T03:00:21;5.87;;;3.63;;
22955;SDS011;40888;48.148;11.526;2023-04-29T03:02:48;2.50;;;2.30;;
22955;SDS011;40888;48.148;11.526;2023-04-29T03:05:14;2.93;;;2.67;;
22955;SDS011;40888;48.148;11.526;2023-04-29T03:07:39;3.67;;;2.97;;
22955;SDS011;40888;48.148;11.526;2023-04-29T03:10:05;2.93;;;2.63;;
22955;SDS011;40888;48.148;11.526;2023-04-29T03:12:31;2.47;;;2.20;;
22955;SDS011;40888;48.148;11.526;2023-04-29T03:14:58;3.03;;;2.40;;
22955;SDS011;40888;48.148;11.526;2023-04-29T03:17:24;3.90;;;2.80;;
22955;SDS011;40888;48.148;11.526;2023-04-29T03:19:50;2.70;;;2.50;;
22955;SDS011;40888;48.148;11.526;2023-04-29T03:22:18;3.80;;;2.80;;
22955;SDS011;40888;48.148;11.526;2023-04-29T03:24:44;3.53;;;2.87;;
22955;SDS011;40888;48.148;11.526;2023-04-29T03:27:09;4.43;;;2.47;;
22955;SDS011;40888;48.148;11.526;2023-04-29T03:29:35;3.07;;;2.57;;
22955;SDS011;40888;48.148;11.526;2023-04-29T03:32:01;2.70;;;2.47;;
22955;SDS011;40888;48.148;11.526;2023-04-29T03:34:27;3.10;;;2.80;;
22955;SDS011;40888;48.148;11.526;2023-04-29T03:36:54;2.50;;;2.30;;
22955;SDS011;40888;48.148;11.526;2023-04-29T03:39:19;3.67;;;3.10;;
22955;SDS011;40888;48.148;11.526;2023-04-29T03:41:48;3.33;;;3.03;;
22955;SDS011;40888;48.148;11.526;2023-04-29T03:44:14;4.37;;;2.80;;
22955;SDS011;40888;48.148;11.526;2023-04-29T03:46:40;3.60;;;3.00;;
22955;SDS011;40888;48.148;11.526;2023-04-29T03:49:05;2.80;;;2.50;;
22955;SDS011;40888;48.148;11.526;2023-04-29T03:51:31;3.60;;;3.30;;
22955;SDS011;40888;48.148;11.526;2023-04-29T03:53:57;3.53;;;3.13;;
22955;SDS011;40888;48.148;11.526;2023-04-29T03:56:23;3.30;;;3.03;;
22955;SDS011;40888;48.148;11.526;2023-04-29T03:58:52;3.40;;;3.10;;
22955;SDS011;40888;48.148;11.526;2023-04-29T04:01:18;3.47;;;3.17;;
22955;SDS011;40888;48.148;11.526;2023-04-29T04:03:44;3.43;;;3.13;;
22955;SDS011;40888;48.148;11.526;2023-04-29T04:06:09;3.67;;;3.20;;
22955;SDS011;40888;48.148;11.526;2023-04-29T04:08:35;2.90;;;2.57;;
22955;SDS011;40888;48.148;11.526;2023-04-29T04:11:01;4.70;;;3.20;;
22955;SDS011;40888;48.148;11.526;2023-04-29T04:13:27;3.70;;;3.10;;
22955;SDS011;40888;48.148;11.526;2023-04-29T04:15:54;3.93;;;3.27;;
22955;SDS011;40888;48.148;11.526;2023-04-29T04:18:19;3.67;;;3.33;;
22955;SDS011;40888;48.148;11.526;2023-04-29T04:20:45;4.37;;;3.40;;
22955;SDS011;40888;48.148;11.526;2023-04-29T04:23:11;3.97;;;3.57;;
22955;SDS011;40888;48.148;11.526;2023-04-29T04:25:37;4.03;;;2.80;;
22955;SDS011;40888;48.148;11.526;2023-04-29T04:28:03;6.00;;;3.50;;
22955;SDS011;40888;48.148;11.526;2023-04-29T04:30:29;5.33;;;3.27;;
22955;SDS011;40888;48.148;11.526;2023-04-29T04:32:54;3.53;;;3.23;;
22955;SDS011;40888;48.148;11.526;2023-04-29T04:35:20;3.60;;;3.30;;
22955;SDS011;40888;48.148;11.526;2023-04-29T04:37:46;4.63;;;3.43;;
22955;SDS011;40888;48.148;11.526;2023-04-29T04:40:12;4.10;;;3.80;;
22955;SDS011;40888;48.148;11.526;2023-04-29T04:42:38;4.87;;;3.97;;
22955;SDS011;40888;48.148;11.526;2023-04-29T04:45:04;5.67;;;4.10;;
22955;SDS011;40888;48.148;11.526;2023-04-29T04:47:30;5.07;;;3.67;;
22955;SDS011;40888;48.148;11.526;2023-04-29T04:49:56;4.37;;;3.90;;
22955;SDS011;40888;48.148;11.526;2023-04-29T04:52:21;5.43;;;4.57;;
22955;SDS011;40888;48.148;11.526;2023-04-29T04:54:47;6.10;;;4.30;;
22955;SDS011;40888;48.148;11.526;2023-04-29T04:57:13;4.80;;;4.30;;
22955;SDS011;40888;48.148;11.526;2023-04-29T04:59:39;6.87;;;4.13;;
22955;SDS011;40888;48.148;11.526;2023-04-29T05:02:04;5.67;;;4.60;;
22955;SDS011;40888;48.148;11.526;2023-04-29T05:04:30;6.50;;;4.67;;
22955;SDS011;40888;48.148;11.526;2023-04-29T05:06:56;8.50;;;4.27;;
22955;SDS011;40888;48.148;11.526;2023-04-29T05:09:22;4.53;;;4.03;;
22955;SDS011;40888;48.148;11.526;2023-04-29T05:11:47;6.87;;;4.47;;
22955;SDS011;40888;48.148;11.526;2023-04-29T05:14:13;4.77;;;4.07;;
22955;SDS011;40888;48.148;11.526;2023-04-29T05:16:39;4.20;;;3.80;;
22955;SDS011;40888;48.148;11.526;2023-04-29T05:19:05;4.43;;;4.03;;
22955;SDS011;40888;48.148;11.526;2023-04-29T05:21:30;4.23;;;3.73;;
22955;SDS011;40888;48.148;11.526;2023-04-29T05:23:56;5.33;;;3.77;;
22955;SDS011;40888;48.148;11.526;2023-04-29T05:26:22;4.27;;;3.87;;
22955;SDS011;40888;48.148;11.526;2023-04-29T05:28:48;5.17;;;4.13;;
22955;SDS011;40888;48.148;11.526;2023-04-29T05:31:13;6.43;;;3.80;;
22955;SDS011;40888;48.148;11.526;2023-04-29T05:33:39;5.67;;;4.50;;
22955;SDS011;40888;48.148;11.526;2023-04-29T05:36:05;4.80;;;3.77;;
22955;SDS011;40888;48.148;11.526;2023-04-29T05:38:31;4.57;;;3.87;;
22955;SDS011;40888;48.148;11.526;2023-04-29T05:40:57;4.67;;;4.27;;
22955;SDS011;40888;48.148;11.526;2023-04-29T05:43:23;5.57;;;4.30;;
22955;SDS011;40888;48.148;11.526;2023-04-29T05:45:49;6.77;;;4.93;;
22955;SDS011;40888;48.148;11.526;2023-04-29T05:48:15;4.83;;;4.20;;
22955;SDS011;40888;48.148;11.526;2023-04-29T05:50:41;4.33;;;3.93;;
22955;SDS011;40888;48.148;11.526;2023-04-29T05:53:07;5.03;;;4.30;;
22955;SDS011;40888;48.148;11.526;2023-04-29T05:55:32;5.53;;;4.67;;
22955;SDS011;40888;48.148;11.526;2023-04-29T05:57:58;5.40;;;4.37;;
22955;SDS011;40888;48.148;11.526;2023-04-29T06:00:24;4.93;;;4.30;;
22955;SDS011;40888;48.148;11.526;2023-04-29T06:02:50;5.67;;;4.67;;
22955;SDS011;40888;48.148;11.526;2023-04-29T06:05:15;5.73;;;4.03;;
22955;SDS011;40888;48.148;11.526;2023-04-29T06:07:41;5.47;;;4.27;;
22955;SDS011;40888;48.148;11.526;2023-04-29T06:10:08;5.67;;;4.97;;
22955;SDS011;40888;48.148;11.526;2023-04-29T06:12:34;6.57;;;5.40;;
22955;SDS011;40888;48.148;11.526;2023-04-29T06:15:00;7.67;;;6.10;;
22955;SDS011;40888;48.148;11.526;2023-04-29T06:17:26;6.27;;;5.20;;
22955;SDS011;40888;48.148;11.526;2023-04-29T06:19:53;8.27;;;6.10;;
22955;SDS011;40888;48.148;11.526;2023-04-29T06:22:20;11.67;;;6.97;;
22955;SDS011;40888;48.148;11.526;2023-04-29T06:24:46;10.47;;;6.73;;
22955;SDS011;40888;48.148;11.526;2023-04-29T06:27:14;8.57;;;6.03;;
22955;SDS011;40888;48.148;11.526;2023-04-29T06:29:40;7.07;;;6.03;;
22955;SDS011;40888;48.148;11.526;2023-04-29T06:32:06;10.13;;;7.90;;
22955;SDS011;40888;48.148;11.526;2023-04-29T06:34:32;10.37;;;8.20;;
22955;SDS011;40888;48.148;11.526;2023-04-29T06:36:58;7.90;;;6.63;;
22955;SDS011;40888;48.148;11.526;2023-04-29T06:39:24;12.07;;;8.03;;
22955;SDS011;40888;48.148;11.526;2023-04-29T06:41:50;10.10;;;8.23;;
22955;SDS011;40888;48.148;11.526;2023-04-29T06:44:16;11.83;;;9.00;;
22955;SDS011;40888;48.148;11.526;2023-04-29T06:46:43;13.23;;;9.57;;
22955;SDS011;40888;48.148;11.526;2023-04-29T06:49:09;12.67;;;9.80;;
22955;SDS011;40888;48.148;11.526;2023-04-29T06:51:38;12.10;;;9.27;;
22955;SDS011;40888;48.148;11.526;2023-04-29T06:54:04;11.13;;;9.53;;
22955;SDS011;40888;48.148;11.526;2023-04-29T06:56:29;12.33;;;9.57;;
22955;SDS011;40888;48.148;11.526;2023-04-29T06:58:55;12.67;;;9.77;;
22955;SDS011;40888;48.148;11.526;2023-04-29T07:01:21;13.50;;;9.27;;
22955;SDS011;40888;48.148;11.526;2023-04-29T07:03:47;10.43;;;9.27;;
22955;SDS011;40888;48.148;11.526;2023-04-29T07:06:12;11.97;;;8.83;;
22955;SDS011;40888;48.148;11.526;2023-04-29T07:08:38;10.27;;;8.13;;
22955;SDS011;40888;48.148;11.526;2023-04-29T07:11:04;10.40;;;8.50;;
22955;SDS011;40888;48.148;11.526;2023-04-29T07:13:30;9.13;;;8.23;;
22955;SDS011;40888;48.148;11.526;2023-04-29T07:15:55;9.40;;;8.10;;
22955;SDS011;40888;48.148;11.526;2023-04-29T07:18:21;12.63;;;7.30;;
22955;SDS011;40888;48.148;11.526;2023-04-29T07:20:47;8.10;;;6.97;;
22955;SDS011;40888;48.148;11.526;2023-04-29T07:23:15;11.60;;;7.47;;
22955;SDS011;40888;48.148;11.526;2023-04-29T07:25:40;10.03;;;7.37;;
22955;SDS011;40888;48.148;11.526;2023-04-29T07:28:06;8.40;;;7.10;;
22955;SDS011;40888;48.148;11.526;2023-04-29T07:30:35;8.40;;;7.30;;
22955;SDS011;40888;48.148;11.526;2023-04-29T07:33:01;7.90;;;6.80;;
22955;SDS011;40888;48.148;11.526;2023-04-29T07:35:28;9.80;;;7.10;;
22955;SDS011;40888;48.148;11.526;2023-04-29T07:37:54;10.40;;;6.87;;
22955;SDS011;40888;48.148;11.526;2023-04-29T07:40:20;6.60;;;5.93;;
22955;SDS011;40888;48.148;11.526;2023-04-29T07:42:46;7.33;;;6.63;;
22955;SDS011;40888;48.148;11.526;2023-04-29T07:45:11;7.40;;;6.63;;
22955;SDS011;40888;48.148;11.526;2023-04-29T07:47:38;7.67;;;5.80;;
22955;SDS011;40888;48.148;11.526;2023-04-29T07:50:04;6.40;;;5.63;;
22955;SDS011;40888;48.148;11.526;2023-04-29T07:52:30;7.53;;;5.97;;
22955;SDS011;40888;48.148;11.526;2023-04-29T07:54:56;6.70;;;6.00;;
22955;SDS011;40888;48.148;11.526;2023-04-29T07:57:21;5.77;;;5.13;;
22955;SDS011;40888;48.148;11.526;2023-04-29T07:59:51;6.10;;;5.40;;
22955;SDS011;40888;48.148;11.526;2023-04-29T08:02:17;8.00;;;5.37;;
22955;SDS011;40888;48.148;11.526;2023-04-29T08:04:43;5.40;;;4.90;;
22955;SDS011;40888;48.148;11.526;2023-04-29T08:07:09;10.07;;;4.57;;
22955;SDS011;40888;48.148;11.526;2023-04-29T08:09:35;4.47;;;4.07;;
22955;SDS011;40888;48.148;11.526;2023-04-29T08:12:01;4.27;;;3.87;;
22955;SDS011;40888;48.148;11.526;2023-04-29T08:14:26;5.17;;;4.40;;
22955;SDS011;40888;48.148;11.526;2023-04-29T08:16:52;5.30;;;4.43;;
22955;SDS011;40888;48.148;11.526;2023-04-29T08:19:19;7.07;;;5.03;;
22955;SDS011;40888;48.148;11.526;2023-04-29T08:21:45;6.37;;;4.63;;
22955;SDS011;40888;48.148;11.526;2023-04-29T08:24:11;5.10;;;4.30;;
22955;SDS011;40888;48.148;11.526;2023-04-29T08:26:41;4.97;;;3.87;;
22955;SDS011;40888;48.148;11.526;2023-04-29T08:29:07;5.60;;;4.23;;
22955;SDS011;40888;48.148;11.526;2023-04-29T08:31:33;4.33;;;3.67;;
22955;SDS011;40888;48.148;11.526;2023-04-29T08:33:59;3.83;;;3.53;;
22955;SDS011;40888;48.148;11.526;2023-04-29T08:36:24;4.40;;;3.80;;
22955;SDS011;40888;48.148;11.526;2023-04-29T08:38:52;4.77;;;3.90;;
22955;SDS011;40888;48.148;11.526;2023-04-29T08:41:19;4.77;;;3.50;;
22955;SDS011;40888;48.148;11.526;2023-04-29T08:43:44;3.67;;;3.23;;
22955;SDS011;40888;48.148;11.526;2023-04-29T08:46:10;3.67;;;3.37;;
22955;SDS011;40888;48.148;11.526;2023-04-29T08:48:37;3.20;;;3.00;;
22955;SDS011;40888;48.148;11.526;2023-04-29T08:51:05;3.10;;;2.80;;
22955;SDS011;40888;48.148;11.526;2023-04-29T08:53:31;3.23;;;2.50;;
22955;SDS011;40888;48.148;11.526;2023-04-29T08:55:57;3.47;;;2.53;;
22955;SDS011;40888;48.148;11.526;2023-04-29T08:58:33;3.50;;;2.60;;
22955;SDS011;40888;48.148;11.526;2023-04-29T09:01:00;2.40;;;2.20;;
22955;SDS011;40888;48.148;11.526;2023-04-29T09:03:29;3.10;;;2.67;;
22955;SDS011;40888;48.148;11.526;2023-04-29T09:06:01;4.50;;;2.83;;
22955;SDS011;40888;48.148;11.526;2023-04-29T09:08:29;2.80;;;2.57;;
22955;SDS011;40888;48.148;11.526;2023-04-29T09:10:56;2.53;;;2.30;;
22955;SDS011;40888;48.148;11.526;2023-04-29T09:13:27;3.40;;;2.40;;
22955;SDS011;40888;48.148;11.526;2023-04-29T09:15:54;2.60;;;2.40;;
22955;SDS011;40888;48.148;11.526;2023-04-29T09:21:16;2.30;;;2.00;;
22955;SDS011;40888;48.148;11.526;2023-04-29T09:23:42;2.50;;;2.10;;
22955;SDS011;40888;48.148;11.526;2023-04-29T09:26:09;2.40;;;2.20;;
22955;SDS011;40888;48.148;11.526;2023-04-29T09:28:35;1.93;;;1.83;;
22955;SDS011;40888;48.148;11.526;2023-04-29T09:31:01;4.23;;;2.87;;
22955;SDS011;40888;48.148;11.526;2023-04-29T09:33:47;2.33;;;2.10;;
22955;SDS011;40888;48.148;11.526;2023-04-29T09:39:10;2.00;;;1.90;;
22955;SDS011;40888;48.148;11.526;2023-04-29T09:41:38;3.07;;;2.40;;
22955;SDS011;40888;48.148;11.526;2023-04-29T09:46:54;2.47;;;2.27;;
22955;SDS011;40888;48.148;11.526;2023-04-29T09:49:29;3.00;;;2.63;;
22955;SDS011;40888;48.148;11.526;2023-04-29T09:52:02;3.33;;;2.13;;
22955;SDS011;40888;48.148;11.526;2023-04-29T09:54:29;2.20;;;2.00;;
22955;SDS011;40888;48.148;11.526;2023-04-29T09:56:57;2.80;;;2.00;;
22955;SDS011;40888;48.148;11.526;2023-04-29T09:59:24;3.87;;;2.20;;
22955;SDS011;40888;48.148;11.526;2023-04-29T10:01:51;2.87;;;2.00;;
22955;SDS011;40888;48.148;11.526;2023-04-29T10:04:22;3.87;;;1.77;;
22955;SDS011;40888;48.148;11.526;2023-04-29T10:06:52;2.57;;;1.80;;
22955;SDS011;40888;48.148;11.526;2023-04-29T10:09:19;1.80;;;1.70;;
22955;SDS011;40888;48.148;11.526;2023-04-29T10:11:47;3.03;;;2.40;;
22955;SDS011;40888;48.148;11.526;2023-04-29T10:14:15;3.10;;;2.80;;
22955;SDS011;40888;48.148;11.526;2023-04-29T10:16:47;3.60;;;3.03;;
22955;SDS011;40888;48.148;11.526;2023-04-29T10:19:22;4.27;;;3.40;;
22955;SDS011;40888;48.148;11.526;2023-04-29T10:21:52;4.13;;;3.07;;
22955;SDS011;40888;48.148;11.526;2023-04-29T10:24:20;3.85;;;3.40;;
22955;SDS011;40888;48.148;11.526;2023-04-29T10:26:48;3.40;;;3.10;;
22955;SDS011;40888;48.148;11.526;2023-04-29T10:29:16;4.20;;;3.20;;
22955;SDS011;40888;48.148;11.526;2023-04-29T10:31:43;4.83;;;3.40;;
22955;SDS011;40888;48.148;11.526;2023-04-29T10:34:10;4.90;;;3.70;;
22955;SDS011;40888;48.148;11.526;2023-04-29T10:36:37;3.60;;;3.30;;
22955;SDS011;40888;48.148;11.526;2023-04-29T10:39:04;2.97;;;2.67;;
22955;SDS011;40888;48.148;11.526;2023-04-29T10:41:44;3.07;;;2.87;;
22955;SDS011;40888;48.148;11.526;2023-04-29T10:44:11;3.57;;;2.93;;
22955;SDS011;40888;48.148;11.526;2023-04-29T10:46:38;3.67;;;2.50;;
22955;SDS011;40888;48.148;11.526;2023-04-29T10:49:04;4.17;;;2.80;;
22955;SDS011;40888;48.148;11.526;2023-04-29T10:51:31;4.68;;;3.38;;
22955;SDS011;40888;48.148;11.526;2023-04-29T10:54:09;2.97;;;2.58;;
22955;SDS011;40888;48.148;11.526;2023-04-29T11:02:08;3.72;;;2.75;;
22955;SDS011;40888;48.148;11.526;2023-04-29T11:04:34;3.42;;;2.00;;
22955;SDS011;40888;48.148;11.526;2023-04-29T11:07:36;2.80;;;2.50;;
22955;SDS011;40888;48.148;11.526;2023-04-29T11:10:02;2.47;;;2.25;;
22955;SDS011;40888;48.148;11.526;2023-04-29T11:12:28;3.22;;;2.70;;
22955;SDS011;40888;48.148;11.526;2023-04-29T11:14:54;3.50;;;2.42;;
22955;SDS011;40888;48.148;11.526;2023-04-29T11:17:27;3.67;;;2.50;;
22955;SDS011;40888;48.148;11.526;2023-04-29T11:20:00;3.50;;;2.00;;
22955;SDS011;40888;48.148;11.526;2023-04-29T11:22:26;2.35;;;2.15;;
22955;SDS011;40888;48.148;11.526;2023-04-29T11:25:07;2.20;;;2.03;;
22955;SDS011;40888;48.148;11.526;2023-04-29T11:27:35;2.42;;;2.10;;
22955;SDS011;40888;48.148;11.526;2023-04-29T11:30:03;3.45;;;2.60;;
22955;SDS011;40888;48.148;11.526;2023-04-29T11:32:31;2.10;;;1.90;;
22955;SDS011;40888;48.148;11.526;2023-04-29T11:35:06;2.67;;;2.00;;
22955;SDS011;40888;48.148;11.526;2023-04-29T11:37:33;1.48;;;1.42;;
22955;SDS011;40888;48.148;11.526;2023-04-29T11:40:00;2.33;;;2.10;;
22955;SDS011;40888;48.148;11.526;2023-04-29T11:42:26;2.55;;;1.88;;
22955;SDS011;40888;48.148;11.526;2023-04-29T11:44:55;2.88;;;1.90;;
22955;SDS011;40888;48.148;11.526;2023-04-29T11:47:25;2.17;;;1.80;;
22955;SDS011;40888;48.148;11.526;2023-04-29T11:50:04;1.80;;;1.70;;
22955;SDS011;40888;48.148;11.526;2023-04-29T11:52:33;1.98;;;1.63;;
22955;SDS011;40888;48.148;11.526;2023-04-29T11:55:01;3.08;;;1.90;;
22955;SDS011;40888;48.148;11.526;2023-04-29T11:57:32;1.70;;;1.60;;
22955;SDS011;40888;48.148;11.526;2023-04-29T11:59:58;1.50;;;1.40;;
22955;SDS011;40888;48.148;11.526;2023-04-29T12:02:31;1.50;;;1.40;;
22955;SDS011;40888;48.148;11.526;2023-04-29T12:04:58;2.55;;;1.58;;
22955;SDS011;40888;48.148;11.526;2023-04-29T12:07:25;1.42;;;1.35;;
22955;SDS011;40888;48.148;11.526;2023-04-29T12:09:51;2.55;;;1.80;;
22955;SDS011;40888;48.148;11.526;2023-04-29T12:12:17;4.25;;;1.73;;
22955;SDS011;40888;48.148;11.526;2023-04-29T12:14:45;1.67;;;1.45;;
22955;SDS011;40888;48.148;11.526;2023-04-29T12:17:11;2.38;;;1.70;;
22955;SDS011;40888;48.148;11.526;2023-04-29T12:19:38;1.80;;;1.70;;
22955;SDS011;40888;48.148;11.526;2023-04-29T12:22:04;1.40;;;1.30;;
22955;SDS011;40888;48.148;11.526;2023-04-29T12:24:34;3.10;;;1.80;;
22955;SDS011;40888;48.148;11.526;2023-04-29T12:27:01;2.13;;;1.92;;
22955;SDS011;40888;48.148;11.526;2023-04-29T12:29:27;1.60;;;1.50;;
22955;SDS011;40888;48.148;11.526;2023-04-29T12:31:52;1.85;;;1.65;;
22955;SDS011;40888;48.148;11.526;2023-04-29T12:34:29;1.80;;;1.70;;
22955;SDS011;40888;48.148;11.526;2023-04-29T12:36:57;1.73;;;1.63;;
22955;SDS011;40888;48.148;11.526;2023-04-29T12:39:24;2.08;;;1.50;;
22955;SDS011;40888;48.148;11.526;2023-04-29T12:41:54;1.70;;;1.60;;
22955;SDS011;40888;48.148;11.526;2023-04-29T12:44:22;1.90;;;1.80;;
22955;SDS011;40888;48.148;11.526;2023-04-29T12:46:49;1.58;;;1.40;;
22955;SDS011;40888;48.148;11.526;2023-04-29T12:49:17;1.38;;;1.27;;
22955;SDS011;40888;48.148;11.526;2023-04-29T12:51:43;1.80;;;1.70;;
22955;SDS011;40888;48.148;11.526;2023-04-29T12:54:09;2.78;;;1.55;;
22955;SDS011;40888;48.148;11.526;2023-04-29T12:56:36;1.42;;;1.33;;
22955;SDS011;40888;48.148;11.526;2023-04-29T12:59:05;1.30;;;1.30;;
22955;SDS011;40888;48.148;11.526;2023-04-29T13:01:35;1.35;;;1.33;;
22955;SDS011;40888;48.148;11.526;2023-04-29T13:04:01;4.40;;;1.30;;
22955;SDS011;40888;48.148;11.526;2023-04-29T13:06:26;2.70;;;1.30;;
22955;SDS011;40888;48.148;11.526;2023-04-29T13:08:52;2.15;;;1.27;;
22955;SDS011;40888;48.148;11.526;2023-04-29T13:11:19;2.00;;;1.63;;
22955;SDS011;40888;48.148;11.526;2023-04-29T13:13:44;1.90;;;1.20;;
22955;SDS011;40888;48.148;11.526;2023-04-29T13:16:10;2.03;;;1.13;;
22955;SDS011;40888;48.148;11.526;2023-04-29T13:18:36;1.50;;;1.40;;
22955;SDS011;40888;48.148;11.526;2023-04-29T13:21:02;1.48;;;1.30;;
22955;SDS011;40888;48.148;11.526;2023-04-29T13:23:27;2.20;;;1.20;;
22955;SDS011;40888;48.148;11.526;2023-04-29T13:25:53;2.45;;;1.38;;
22955;SDS011;40888;48.148;11.526;2023-04-29T13:28:19;2.28;;;1.02;;
22955;SDS011;40888;48.148;11.526;2023-04-29T13:30:46;1.30;;;1.20;;
22955;SDS011;40888;48.148;11.526;2023-04-29T13:33:12;1.20;;;1.10;;
22955;SDS011;40888;48.148;11.526;2023-04-29T13:35:38;1.40;;;0.90;;
22955;SDS011;40888;48.148;11.526;2023-04-29T13:38:05;0.80;;;0.80;;
22955;SDS011;40888;48.148;11.526;2023-04-29T13:40:32;1.60;;;1.13;;
22955;SDS011;40888;48.148;11.526;2023-04-29T13:42:58;1.02;;;1.00;;
22955;SDS011;40888;48.148;11.526;2023-04-29T13:45:23;2.38;;;1.40;;
22955;SDS011;40888;48.148;11.526;2023-04-29T13:47:49;2.85;;;1.10;;
22955;SDS011;40888;48.148;11.526;2023-04-29T13:50:15;1.17;;;1.17;;
22955;SDS011;40888;48.148;11.526;2023-04-29T13:52:41;2.30;;;0.98;;
22955;SDS011;40888;48.148;11.526;2023-04-29T13:55:07;1.58;;;1.13;;
22955;SDS011;40888;48.148;11.526;2023-04-29T13:57:33;2.50;;;0.63;;
22955;SDS011;40888;48.148;11.526;2023-04-29T13:59:58;1.25;;;0.90;;
22955;SDS011;40888;48.148;11.526;2023-04-29T14:02:24;1.20;;;1.10;;
22955;SDS011;40888;48.148;11.526;2023-04-29T14:04:50;1.77;;;1.00;;
22955;SDS011;40888;48.148;11.526;2023-04-29T14:07:16;1.70;;;1.13;;
22955;SDS011;40888;48.148;11.526;2023-04-29T14:09:41;1.35;;;1.00;;
22955;SDS011;40888;48.148;11.526;2023-04-29T14:12:07;1.13;;;1.00;;
22955;SDS011;40888;48.148;11.526;2023-04-29T14:14:33;0.80;;;0.80;;
22955;SDS011;40888;48.148;11.526;2023-04-29T14:16:59;2.00;;;1.27;;
22955;SDS011;40888;48.148;11.526;2023-04-29T14:19:25;1.55;;;1.45;;
22955;SDS011;40888;48.148;11.526;2023-04-29T14:21:51;1.63;;;1.52;;
22955;SDS011;40888;48.148;11.526;2023-04-29T14:24:20;5.10;;;1.20;;
22955;SDS011;40888;48.148;11.526;2023-04-29T14:26:46;1.50;;;1.40;;
22955;SDS011;40888;48.148;11.526;2023-04-29T14:29:12;1.55;;;1.45;;
22955;SDS011;40888;48.148;11.526;2023-04-29T14:31:38;2.00;;;1.35;;
22955;SDS011;40888;48.148;11.526;2023-04-29T14:34:03;1.50;;;1.40;;
22955;SDS011;40888;48.148;11.526;2023-04-29T14:36:30;2.05;;;1.80;;
22955;SDS011;40888;48.148;11.526;2023-04-29T14:38:58;1.77;;;1.52;;
22955;SDS011;40888;48.148;11.526;2023-04-29T14:41:25;1.33;;;1.23;;
22955;SDS011;40888;48.148;11.526;2023-04-29T14:43:51;1.50;;;1.40;;
22955;SDS011;40888;48.148;11.526;2023-04-29T14:46:17;1.88;;;1.27;;
22955;SDS011;40888;48.148;11.526;2023-04-29T14:48:44;2.28;;;1.20;;
22955;SDS011;40888;48.148;11.526;2023-04-29T14:51:10;1.30;;;1.20;;
22955;SDS011;40888;48.148;11.526;2023-04-29T14:53:36;1.60;;;1.50;;
22955;SDS011;40888;48.148;11.526;2023-04-29T14:56:02;1.10;;;1.10;;